Time;durP1;ratioP1;P1;durP2;ratioP2;P2;SDS_P1;SDS_P2;PMS_P1;PMS_P2;Temp;Humidity;BMP_temperature;BMP_pressure;BME280_temperature;BME280_humidity;BME280_pressure;Samples;Min_cycle;Max_cycle;Signal;HPM_P1;HPM_P2
2022/06/23 00:00:42;;;;;;;;;;;;;;;23.89;46.17;101400.47;4975031;28;19913;-70
2022/06/23 00:03:07;;;;;;;;;;;;;;;24.02;46.09;101395.03;4975828;28;19928;-69
2022/06/23 00:05:38;;;;;;;;;;;;;;;23.95;46.21;101402.00;4975604;28;19926;-70
2022/06/23 00:08:04;;;;;;;;;;;;;;;23.84;46.09;101395.06;4975134;28;19925;-69
2022/06/23 00:10:37;;;;;;;;;;;;;;;23.67;47.00;101400.28;4974719;28;19965;-68
2022/06/23 00:13:03;;;;;;;;;;;;;;;23.59;46.84;101401.75;4975336;28;19922;-69
2022/06/23 00:15:36;;;;;;;;;;;;;;;23.61;46.50;101399.53;4974932;28;19921;-70
2022/06/23 00:18:03;;;;;;;;;;;;;;;23.77;46.06;101402.84;4975849;28;19977;-70
2022/06/23 00:20:52;;;;;;;;;;;;;;;23.85;46.47;101396.69;4974938;28;19918;-69
2022/06/23 00:23:24;;;;;;;;;;;;;;;23.61;47.15;101394.06;4975304;28;19922;-69
2022/06/23 00:26:02;;;;;;;;;;;;;;;23.57;46.65;101387.53;4979534;28;19922;-70
2022/06/23 00:28:46;;;;;;;;;;;;;;;23.65;46.33;101391.53;4976865;28;19929;-70
2022/06/23 00:31:29;;;;;;;;;;;;;;;23.38;47.32;101387.56;4975729;28;19918;-71
2022/06/23 00:33:55;;;;;;;;;;;;;;;23.42;46.86;101377.63;4979284;28;20386;-69
2022/06/23 00:36:26;;;;;;;;;;;;;;;23.38;47.61;101367.53;4974022;28;19914;-69
2022/06/23 00:38:51;;;;;;;;;;;;;;;23.50;47.43;101359.66;4974516;28;19921;-68
2022/06/23 00:41:18;;;;;;;;;;;;;;;23.63;47.14;101360.81;4974510;28;19941;-69
2022/06/23 00:43:46;;;;;;;;;;;;;;;23.68;46.13;101363.50;4974410;28;19957;-69
2022/06/23 00:46:38;;;;;;;;;;;;;;;23.47;46.75;101363.81;4974264;28;19925;-69
2022/06/23 00:49:15;;;;;;;;;;;;;;;23.29;47.93;101370.09;4978162;28;19928;-70
2022/06/23 00:51:43;;;;;;;;;;;;;;;23.05;48.12;101366.63;4974137;28;19982;-68
2022/06/23 00:54:16;;;;;;;;;;;;;;;22.78;49.02;101360.91;4974676;28;19918;-69
2022/06/23 00:56:50;;;;;;;;;;;;;;;23.26;47.58;101359.72;4976829;28;19925;-69
2022/06/23 00:59:18;;;;;;;;;;;;;;;23.31;47.80;101356.94;4974253;28;19944;-69
2022/06/23 01:01:51;;;;;;;;;;;;;;;23.34;47.32;101358.25;4974092;28;20009;-68
2022/06/23 01:04:22;;;;;;;;;;;;;;;23.45;46.47;101360.56;4974155;28;19918;-69
2022/06/23 01:06:57;;;;;;;;;;;;;;;23.37;46.70;101358.47;4973751;28;19930;-69
2022/06/23 01:09:36;;;;;;;;;;;;;;;23.38;46.47;101370.28;4974162;28;19953;-71
2022/06/23 01:12:25;;;;;;;;;;;;;;;23.08;48.20;101362.44;4974024;28;20387;-69
2022/06/23 01:15:09;;;;;;;;;;;;;;;22.69;48.29;101363.53;4974259;28;19924;-70
2022/06/23 01:17:40;;;;;;;;;;;;;;;23.06;47.87;101367.41;4973644;28;19918;-69
2022/06/23 01:20:16;;;;;;;;;;;;;;;22.90;48.38;101372.28;4973933;28;20263;-70
2022/06/23 01:22:51;;;;;;;;;;;;;;;23.13;47.71;101379.66;4974603;28;19957;-69
2022/06/23 01:25:35;;;;;;;;;;;;;;;22.90;48.05;101372.28;4977280;28;19925;-69
2022/06/23 01:28:06;;;;;;;;;;;;;;;22.88;48.14;101379.97;4979920;28;19972;-71
2022/06/23 01:30:34;;;;;;;;;;;;;;;22.91;47.87;101376.66;4981127;28;19914;-70
2022/06/23 01:33:17;;;;;;;;;;;;;;;22.80;47.94;101385.31;4974091;28;19917;-69
2022/06/23 01:35:59;;;;;;;;;;;;;;;22.86;47.93;101384.16;4984230;28;19917;-70
2022/06/23 01:38:30;;;;;;;;;;;;;;;22.84;47.86;101380.88;4973183;28;19918;-70
2022/06/23 01:41:01;;;;;;;;;;;;;;;22.86;47.96;101375.94;4973271;28;19926;-70
2022/06/23 01:43:42;;;;;;;;;;;;;;;22.80;48.23;101369.66;4972996;28;19969;-70
2022/06/23 01:46:13;;;;;;;;;;;;;;;22.82;48.13;101374.88;4973193;28;20405;-68
2022/06/23 01:48:53;;;;;;;;;;;;;;;22.68;48.33;101372.03;4973595;28;19913;-68
2022/06/23 01:51:30;;;;;;;;;;;;;;;22.75;48.47;101368.91;4973441;28;19918;-69
2022/06/23 01:54:07;;;;;;;;;;;;;;;22.78;48.16;101365.63;4973079;28;20009;-69
2022/06/23 01:56:44;;;;;;;;;;;;;;;22.85;47.72;101366.88;4975273;28;20403;-69
2022/06/23 01:59:16;;;;;;;;;;;;;;;22.95;47.44;101366.75;4973046;28;19917;-69
2022/06/23 02:01:52;;;;;;;;;;;;;;;22.77;47.99;101366.69;4972999;28;19972;-68
2022/06/23 02:04:40;;;;;;;;;;;;;;;22.32;49.46;101359.81;4974116;28;19918;-70
2022/06/23 02:07:25;;;;;;;;;;;;;;;22.65;48.65;101361.66;4987105;28;20291;-68
2022/06/23 02:09:53;;;;;;;;;;;;;;;22.29;49.20;101358.47;4978252;28;19972;-69
2022/06/23 02:12:37;;;;;;;;;;;;;;;22.59;48.25;101351.84;4973425;28;19917;-69
2022/06/23 02:15:24;;;;;;;;;;;;;;;22.41;49.10;101355.31;4972817;28;19924;-69
2022/06/23 02:17:58;;;;;;;;;;;;;;;22.27;49.01;101351.66;4976395;28;19958;-69
2022/06/23 02:20:43;;;;;;;;;;;;;;;22.23;49.22;101350.63;4972617;28;19918;-68
2022/06/23 02:23:20;;;;;;;;;;;;;;;22.39;48.53;101350.13;4973014;28;19922;-68
2022/06/23 02:25:56;;;;;;;;;;;;;;;22.37;49.08;101357.00;4976881;28;19925;-69
2022/06/23 02:28:27;;;;;;;;;;;;;;;22.27;48.73;101357.94;4972590;28;19929;-70
2022/06/23 02:30:59;;;;;;;;;;;;;;;22.42;48.65;101366.00;4972489;28;19918;-69
2022/06/23 02:33:27;;;;;;;;;;;;;;;22.40;48.35;101360.00;4972551;28;19920;-71
2022/06/23 02:36:12;;;;;;;;;;;;;;;22.16;49.54;101363.81;4972482;28;19918;-69
2022/06/23 02:38:37;;;;;;;;;;;;;;;22.26;48.94;101359.06;4971905;28;20001;-68
2022/06/23 02:41:05;;;;;;;;;;;;;;;22.28;48.91;101359.59;4972507;28;19993;-68
2022/06/23 02:43:36;;;;;;;;;;;;;;;22.30;48.90;101364.75;4978423;28;19922;-70
2022/06/23 02:46:07;;;;;;;;;;;;;;;22.11;49.46;101366.63;4972736;28;19996;-68
2022/06/23 02:48:45;;;;;;;;;;;;;;;22.31;48.33;101367.19;4974905;28;20358;-69
2022/06/23 02:51:22;;;;;;;;;;;;;;;22.34;48.38;101363.06;4972827;28;19914;-69
2022/06/23 02:53:56;;;;;;;;;;;;;;;22.08;49.23;101367.16;4972618;28;20009;-69
2022/06/23 02:56:21;;;;;;;;;;;;;;;21.90;50.11;101349.56;4974774;28;19926;-69
2022/06/23 02:58:50;;;;;;;;;;;;;;;22.10;49.20;101345.81;4972015;28;19925;-69
2022/06/23 03:01:23;;;;;;;;;;;;;;;22.05;49.65;101340.38;4971759;28;19925;-69
2022/06/23 03:03:57;;;;;;;;;;;;;;;21.89;49.79;101339.72;4971989;28;19959;-69
2022/06/23 03:06:28;;;;;;;;;;;;;;;22.01;49.78;101342.91;4972213;28;21716;-70
2022/06/23 03:08:57;;;;;;;;;;;;;;;22.21;48.75;101330.91;4971798;28;19933;-70
2022/06/23 03:11:52;;;;;;;;;;;;;;;21.98;49.55;101323.47;4971661;28;19924;-69
2022/06/23 03:14:23;;;;;;;;;;;;;;;21.68;50.21;101321.81;5003018;28;19958;-68
2022/06/23 03:16:51;;;;;;;;;;;;;;;21.66;50.29;101315.84;4972064;28;20396;-68
2022/06/23 03:19:28;;;;;;;;;;;;;;;21.72;50.88;101325.59;4977285;28;20029;-70
2022/06/23 03:22:03;;;;;;;;;;;;;;;21.65;50.65;101322.41;4981633;28;19925;-69
2022/06/23 03:24:35;;;;;;;;;;;;;;;22.00;49.30;101321.25;4970832;28;20390;-69
2022/06/23 03:27:03;;;;;;;;;;;;;;;21.92;49.73;101319.97;4971530;28;19922;-68
2022/06/23 03:29:31;;;;;;;;;;;;;;;22.01;49.25;101323.75;4970846;28;19961;-69
2022/06/23 03:32:05;;;;;;;;;;;;;;;21.92;49.34;101332.84;4971127;28;19918;-68
2022/06/23 03:34:42;;;;;;;;;;;;;;;21.91;49.65;101325.75;5001997;28;19992;-68
2022/06/23 03:37:12;;;;;;;;;;;;;;;22.05;49.21;101324.78;4971443;28;19925;-70
2022/06/23 03:42:28;;;;;;;;;;;;;;;21.78;49.77;101338.13;4971540;28;19913;-69
2022/06/23 03:44:59;;;;;;;;;;;;;;;21.85;50.29;101333.19;4971288;28;19922;-68
2022/06/23 03:47:29;;;;;;;;;;;;;;;21.91;49.82;101333.97;4971868;28;19926;-70
2022/06/23 03:49:57;;;;;;;;;;;;;;;21.96;49.25;101342.94;4972653;28;19918;-70
2022/06/23 03:52:30;;;;;;;;;;;;;;;21.96;49.37;101350.31;4971519;28;19918;-70
2022/06/23 03:55:01;;;;;;;;;;;;;;;21.81;49.90;101349.38;4974524;28;19929;-71
2022/06/23 03:57:31;;;;;;;;;;;;;;;21.82;50.06;101351.00;4971937;28;19921;-68
2022/06/23 04:00:17;;;;;;;;;;;;;;;21.97;49.30;101351.97;4971902;28;20402;-68
2022/06/23 04:02:45;;;;;;;;;;;;;;;21.87;49.80;101350.16;4974213;28;20475;-69
2022/06/23 04:05:15;;;;;;;;;;;;;;;21.95;49.48;101352.25;4974621;28;19985;-71
2022/06/23 04:07:47;;;;;;;;;;;;;;;21.94;49.51;101352.53;4973663;28;19922;-69
2022/06/23 04:10:13;;;;;;;;;;;;;;;21.98;49.56;101359.06;4974109;28;19939;-68
2022/06/23 04:12:44;;;;;;;;;;;;;;;22.03;49.03;101348.06;4975335;28;19921;-68
2022/06/23 04:15:13;;;;;;;;;;;;;;;21.92;49.78;101349.25;4983762;28;19992;-68
2022/06/23 04:17:41;;;;;;;;;;;;;;;22.04;49.71;101345.03;4980002;28;20004;-68
2022/06/23 04:20:15;;;;;;;;;;;;;;;21.98;49.60;101346.19;4974444;28;19918;-70
2022/06/23 04:23:10;;;;;;;;;;;;;;;22.17;49.63;101349.03;4980906;28;20698;-69
2022/06/23 04:25:47;;;;;;;;;;;;;;;22.03;49.57;101340.69;4978956;28;19981;-70
2022/06/23 04:28:21;;;;;;;;;;;;;;;22.09;49.35;101341.44;4968482;28;20052;-68
2022/06/23 04:30:47;;;;;;;;;;;;;;;22.07;49.72;101343.66;4983753;28;20449;-69
2022/06/23 04:33:16;;;;;;;;;;;;;;;22.12;49.46;101347.16;4979577;28;19910;-69
2022/06/23 04:35:45;;;;;;;;;;;;;;;22.23;49.26;101342.41;4984571;28;19918;-68
2022/06/23 04:38:11;;;;;;;;;;;;;;;22.18;49.15;101336.97;4990099;28;19929;-70
2022/06/23 04:40:42;;;;;;;;;;;;;;;22.21;49.30;101334.44;4984629;28;20007;-69
2022/06/23 04:43:23;;;;;;;;;;;;;;;22.25;48.91;101329.22;4972775;28;19922;-68
2022/06/23 04:45:52;;;;;;;;;;;;;;;22.27;49.29;101337.97;4990136;28;19968;-68
2022/06/23 04:48:20;;;;;;;;;;;;;;;22.42;48.85;101322.19;4984595;28;19918;-68
2022/06/23 04:50:49;;;;;;;;;;;;;;;22.18;49.75;101324.09;4983897;28;20054;-69
2022/06/23 04:53:21;;;;;;;;;;;;;;;22.37;49.47;101321.41;4978513;28;19918;-68
2022/06/23 04:55:54;;;;;;;;;;;;;;;22.53;48.94;101326.41;4984172;28;19917;-67
2022/06/23 04:58:22;;;;;;;;;;;;;;;22.57;49.29;101329.41;4990169;28;19934;-69
2022/06/23 05:00:51;;;;;;;;;;;;;;;22.68;48.34;101329.00;4984180;28;19914;-69
2022/06/23 05:03:24;;;;;;;;;;;;;;;22.82;48.72;101317.31;4980610;28;19914;-68
2022/06/23 05:05:58;;;;;;;;;;;;;;;22.88;48.68;101319.69;4974944;28;19921;-69
2022/06/23 05:08:27;;;;;;;;;;;;;;;22.87;48.73;101329.03;4973925;28;19922;-69
2022/06/23 05:10:58;;;;;;;;;;;;;;;23.15;47.89;101321.78;4977625;28;19917;-69
2022/06/23 05:13:26;;;;;;;;;;;;;;;23.23;48.10;101327.38;4975356;28;19940;-69
2022/06/23 05:15:51;;;;;;;;;;;;;;;23.26;47.90;101320.50;4974165;28;20017;-69
2022/06/23 05:18:25;;;;;;;;;;;;;;;23.17;47.92;101316.81;4990061;28;20001;-68
2022/06/23 05:20:53;;;;;;;;;;;;;;;23.14;48.53;101318.22;4985919;28;19922;-69
2022/06/23 05:23:24;;;;;;;;;;;;;;;23.25;48.79;101313.41;4986905;28;20413;-70
2022/06/23 05:25:53;;;;;;;;;;;;;;;23.37;47.54;101314.59;4984730;28;20011;-70
2022/06/23 05:28:23;;;;;;;;;;;;;;;23.52;47.66;101308.06;4986657;28;20278;-71
2022/06/23 05:30:54;;;;;;;;;;;;;;;23.66;46.76;101313.59;4989328;28;19933;-71
2022/06/23 05:33:21;;;;;;;;;;;;;;;23.48;47.41;101302.34;4988307;28;19929;-71
2022/06/23 05:35:49;;;;;;;;;;;;;;;23.91;46.06;101302.97;4987534;28;19923;-72
2022/06/23 05:38:52;;;;;;;;;;;;;;;23.88;46.52;101292.56;4989538;28;19917;-70
2022/06/23 05:41:22;;;;;;;;;;;;;;;24.21;45.94;101301.59;4992375;28;20089;-70
2022/06/23 05:43:48;;;;;;;;;;;;;;;24.33;45.48;101294.47;4983986;28;19976;-71
2022/06/23 05:46:17;;;;;;;;;;;;;;;24.38;45.55;101296.31;4988732;28;19922;-69
2022/06/23 05:48:43;;;;;;;;;;;;;;;24.38;45.94;101299.88;4978848;28;20381;-72
2022/06/23 05:51:20;;;;;;;;;;;;;;;24.55;45.30;101296.50;4980533;28;19914;-71
2022/06/23 05:53:58;;;;;;;;;;;;;;;24.64;44.63;101293.84;4978733;28;19922;-69
2022/06/23 05:56:28;;;;;;;;;;;;;;;24.72;44.93;101296.72;4974114;28;19932;-71
2022/06/23 05:59:02;;;;;;;;;;;;;;;24.70;45.32;101303.63;4980394;28;20064;-70
2022/06/23 06:01:27;;;;;;;;;;;;;;;24.89;44.39;101302.38;4985798;28;19922;-70
2022/06/23 06:03:56;;;;;;;;;;;;;;;24.78;44.81;101309.25;4985816;28;19921;-71
2022/06/23 06:06:22;;;;;;;;;;;;;;;24.66;44.96;101310.84;4979736;28;19929;-71
2022/06/23 06:11:34;;;;;;;;;;;;;;;24.80;44.55;101306.16;4986010;28;20341;-70
2022/06/23 06:14:01;;;;;;;;;;;;;;;25.02;44.00;101304.28;4986586;28;19925;-72
2022/06/23 06:16:27;;;;;;;;;;;;;;;25.23;43.80;101290.88;4985294;28;19921;-71
2022/06/23 06:18:53;;;;;;;;;;;;;;;25.19;44.00;101301.69;4971402;28;20345;-69
2022/06/23 06:21:19;;;;;;;;;;;;;;;25.39;43.25;101297.63;4984767;28;20465;-68
2022/06/23 06:23:49;;;;;;;;;;;;;;;25.23;43.71;101294.44;4980730;28;20271;-72
2022/06/23 06:26:16;;;;;;;;;;;;;;;24.96;44.26;101294.50;4970504;28;19934;-71
2022/06/23 06:28:41;;;;;;;;;;;;;;;25.33;43.57;101296.13;4985100;28;19933;-71
2022/06/23 06:31:26;;;;;;;;;;;;;;;25.53;43.05;101292.91;4986654;28;19918;-71
2022/06/23 06:33:54;;;;;;;;;;;;;;;25.53;43.00;101297.59;4970771;28;19918;-71
2022/06/23 06:36:24;;;;;;;;;;;;;;;25.89;41.96;101301.03;4982366;28;19956;-72
2022/06/23 06:38:49;;;;;;;;;;;;;;;25.79;42.24;101298.53;4970439;28;19918;-70
2022/06/23 06:41:15;;;;;;;;;;;;;;;25.82;41.69;101293.25;4974914;28;19924;-72
2022/06/23 06:43:40;;;;;;;;;;;;;;;25.91;41.73;101296.03;4980328;28;19922;-69
2022/06/23 06:46:05;;;;;;;;;;;;;;;25.67;42.66;101290.88;4984439;28;19924;-68
2022/06/23 06:48:32;;;;;;;;;;;;;;;26.07;41.49;101291.75;4977615;28;19944;-70
2022/06/23 06:51:04;;;;;;;;;;;;;;;26.22;41.55;101296.03;4972666;28;19917;-72
2022/06/23 06:53:33;;;;;;;;;;;;;;;25.81;42.45;101293.53;4978002;28;20457;-70
2022/06/23 06:56:04;;;;;;;;;;;;;;;26.36;41.09;101289.28;4972490;28;19926;-71
2022/06/23 06:58:35;;;;;;;;;;;;;;;26.32;41.30;101291.03;4977850;28;19987;-70
2022/06/23 07:01:05;;;;;;;;;;;;;;;26.40;40.41;101293.00;4972082;28;20479;-71
2022/06/23 07:03:31;;;;;;;;;;;;;;;26.51;41.11;101285.28;4978277;28;19918;-71
2022/06/23 07:06:02;;;;;;;;;;;;;;;26.56;40.46;101282.34;4977100;28;20497;-70
2022/06/23 07:08:42;;;;;;;;;;;;;;;26.82;40.32;101286.81;4971830;28;19926;-70
2022/06/23 07:11:10;;;;;;;;;;;;;;;26.90;39.95;101285.19;4969807;28;19918;-70
2022/06/23 07:13:39;;;;;;;;;;;;;;;27.06;39.70;101280.00;4969498;28;19944;-71
2022/06/23 07:16:17;;;;;;;;;;;;;;;27.32;39.29;101286.34;4973806;28;20428;-70
2022/06/23 07:18:46;;;;;;;;;;;;;;;27.31;38.86;101295.75;4968852;28;20367;-69
2022/06/23 07:21:11;;;;;;;;;;;;;;;27.52;38.80;101289.25;4969525;28;19918;-68
2022/06/23 07:23:47;;;;;;;;;;;;;;;27.71;37.92;101303.50;4999762;28;19932;-69
2022/06/23 07:26:15;;;;;;;;;;;;;;;27.53;38.83;101287.31;4969389;28;19929;-71
2022/06/23 07:28:43;;;;;;;;;;;;;;;27.71;38.74;101286.16;4968842;28;20833;-72
2022/06/23 07:31:14;;;;;;;;;;;;;;;27.51;38.49;101289.59;4969545;28;20373;-71
2022/06/23 07:33:50;;;;;;;;;;;;;;;27.51;39.34;101284.06;4984299;28;20032;-70
2022/06/23 07:36:25;;;;;;;;;;;;;;;27.77;38.75;101293.13;4969285;28;19917;-71
2022/06/23 07:38:50;;;;;;;;;;;;;;;27.79;38.40;101277.03;4969065;28;20046;-72
2022/06/23 07:41:34;;;;;;;;;;;;;;;27.47;38.83;101285.84;4975299;28;20278;-71
2022/06/23 07:44:12;;;;;;;;;;;;;;;27.77;38.86;101287.59;4974611;28;20000;-70
2022/06/23 07:46:38;;;;;;;;;;;;;;;27.86;38.96;101288.38;5006436;28;20099;-69
2022/06/23 07:49:04;;;;;;;;;;;;;;;27.88;37.91;101288.84;4974565;28;20481;-72
2022/06/23 07:51:30;;;;;;;;;;;;;;;27.94;38.00;101282.00;5006344;28;19924;-71
2022/06/23 07:53:56;;;;;;;;;;;;;;;28.08;38.08;101279.88;4972288;28;20012;-72
2022/06/23 07:56:26;;;;;;;;;;;;;;;28.31;38.12;101288.69;4972234;28;20026;-71
2022/06/23 07:58:56;;;;;;;;;;;;;;;28.43;37.84;101286.84;4976311;28;19964;-71
2022/06/23 08:01:24;;;;;;;;;;;;;;;28.29;37.35;101283.50;4971669;28;19925;-73
2022/06/23 08:04:08;;;;;;;;;;;;;;;28.60;37.28;101278.47;4971130;28;20386;-70
2022/06/23 08:06:34;;;;;;;;;;;;;;;28.78;36.34;101281.09;4978497;28;19920;-70
2022/06/23 08:09:07;;;;;;;;;;;;;;;28.80;36.67;101274.09;4971120;28;20001;-72
2022/06/23 08:14:36;;;;;;;;;;;;;;;29.11;36.44;101277.25;4974939;28;20338;-71
2022/06/23 08:17:04;;;;;;;;;;;;;;;28.97;35.97;101275.94;4972442;28;19918;-71
2022/06/23 08:19:29;;;;;;;;;;;;;;;29.13;36.07;101275.00;4971232;28;19918;-70
2022/06/23 08:22:16;;;;;;;;;;;;;;;29.46;36.05;101261.97;4974368;28;19925;-69
2022/06/23 08:24:43;;;;;;;;;;;;;;;29.28;36.33;101256.97;4969954;28;19922;-70
2022/06/23 08:27:13;;;;;;;;;;;;;;;29.54;35.54;101256.69;4978351;28;20429;-69
2022/06/23 08:29:42;;;;;;;;;;;;;;;29.38;35.88;101259.31;4979311;28;20517;-70
2022/06/23 08:32:08;;;;;;;;;;;;;;;30.09;34.97;101245.97;4971793;28;19969;-72
2022/06/23 08:34:34;;;;;;;;;;;;;;;29.81;35.71;101250.56;4971509;28;19988;-70
2022/06/23 08:37:03;;;;;;;;;;;;;;;30.18;33.95;101247.47;5009292;28;19925;-72
2022/06/23 08:39:28;;;;;;;;;;;;;;;30.47;33.45;101242.84;4971426;28;19949;-71
2022/06/23 08:42:00;;;;;;;;;;;;;;;29.91;34.92;101234.28;4973735;28;19953;-72
2022/06/23 08:44:25;;;;;;;;;;;;;;;30.44;33.05;101238.00;4980101;28;20012;-73
2022/06/23 08:46:56;;;;;;;;;;;;;;;30.91;32.71;101239.88;4971284;28;20008;-71
2022/06/23 08:49:25;;;;;;;;;;;;;;;30.75;32.67;101238.97;4973056;28;19965;-71
2022/06/23 08:51:59;;;;;;;;;;;;;;;30.74;32.68;101231.00;4975136;28;20030;-70
2022/06/23 08:54:25;;;;;;;;;;;;;;;31.06;31.79;101232.75;4980999;28;19913;-71
2022/06/23 08:57:08;;;;;;;;;;;;;;;30.44;32.37;101227.72;4973027;28;19928;-71
2022/06/23 08:59:53;;;;;;;;;;;;;;;30.96;32.96;101222.97;4971909;28;19918;-70
2022/06/23 09:02:21;;;;;;;;;;;;;;;31.42;32.23;101224.28;4973396;28;19921;-70
2022/06/23 09:04:49;;;;;;;;;;;;;;;30.94;32.76;101225.28;4982350;28;19972;-70
2022/06/23 09:07:26;;;;;;;;;;;;;;;31.73;30.99;101217.94;4975164;28;19926;-70
2022/06/23 09:09:51;;;;;;;;;;;;;;;31.85;30.73;101215.06;4981884;28;19921;-70
2022/06/23 09:12:29;;;;;;;;;;;;;;;31.91;31.08;101211.72;4975479;28;19921;-69
2022/06/23 09:15:12;;;;;;;;;;;;;;;31.86;31.76;101217.50;4969576;28;20199;-70
2022/06/23 09:17:46;;;;;;;;;;;;;;;31.83;31.45;101209.06;4983554;28;19929;-71
2022/06/23 09:20:14;;;;;;;;;;;;;;;32.37;30.51;101214.78;4983173;28;20317;-72
2022/06/23 09:22:39;;;;;;;;;;;;;;;32.06;31.23;101215.63;4979191;28;19917;-71
2022/06/23 09:25:05;;;;;;;;;;;;;;;32.51;30.14;101215.91;4987541;28;19929;-72
2022/06/23 09:27:50;;;;;;;;;;;;;;;32.47;30.62;101215.03;4986202;28;19928;-73
2022/06/23 09:30:34;;;;;;;;;;;;;;;32.95;29.98;101208.13;4979771;28;20251;-72
2022/06/23 09:33:00;;;;;;;;;;;;;;;32.46;30.07;101205.09;4981362;28;20033;-71
2022/06/23 09:35:31;;;;;;;;;;;;;;;32.92;29.50;101205.25;4975301;28;20403;-71
2022/06/23 09:38:08;;;;;;;;;;;;;;;32.49;30.14;101204.34;4980532;28;19918;-68
2022/06/23 09:40:45;;;;;;;;;;;;;;;32.92;29.70;101210.84;4976190;28;19925;-70
2022/06/23 09:43:29;;;;;;;;;;;;;;;33.07;29.95;101204.41;4970749;28;19922;-71
2022/06/23 09:46:01;;;;;;;;;;;;;;;33.60;28.95;101203.44;4975788;28;19918;-70
2022/06/23 09:48:41;;;;;;;;;;;;;;;33.40;29.60;101201.84;4975653;28;20374;-71
2022/06/23 09:51:10;;;;;;;;;;;;;;;33.73;28.40;101210.44;4979927;28;19925;-73
2022/06/23 09:53:53;;;;;;;;;;;;;;;33.89;27.96;101202.72;4976789;28;19957;-70
2022/06/23 09:56:19;;;;;;;;;;;;;;;33.96;28.61;101204.84;5008437;28;19933;-70
2022/06/23 09:58:56;;;;;;;;;;;;;;;33.96;28.19;101200.06;4977435;28;19922;-70
2022/06/23 10:01:40;;;;;;;;;;;;;;;34.60;27.54;101195.47;4977459;28;20032;-71
2022/06/23 10:04:20;;;;;;;;;;;;;;;34.75;27.85;101184.13;4977453;28;19925;-70
2022/06/23 10:06:55;;;;;;;;;;;;;;;34.75;28.11;101186.91;4978175;28;19918;-70
2022/06/23 10:09:20;;;;;;;;;;;;;;;35.01;27.31;101186.84;4986516;28;19922;-71
2022/06/23 10:11:57;;;;;;;;;;;;;;;34.73;27.90;101182.88;4982693;28;20314;-72
2022/06/23 10:14:25;;;;;;;;;;;;;;;34.83;27.54;101185.78;4985231;28;19924;-71
2022/06/23 10:17:07;;;;;;;;;;;;;;;34.93;26.94;101187.13;4987858;28;20301;-71
2022/06/23 10:19:51;;;;;;;;;;;;;;;35.30;26.76;101185.16;4983318;28;20699;-70
2022/06/23 10:22:25;;;;;;;;;;;;;;;35.33;25.96;101184.38;4983894;28;19929;-71
2022/06/23 10:24:52;;;;;;;;;;;;;;;35.34;26.55;101178.41;4984370;28;19922;-71
2022/06/23 10:27:38;;;;;;;;;;;;;;;36.04;25.65;101185.84;4983170;28;19972;-71
2022/06/23 10:30:06;;;;;;;;;;;;;;;36.16;25.63;101183.56;4961453;28;19976;-71
2022/06/23 10:33:04;;;;;;;;;;;;;;;36.31;24.46;101181.63;4964001;28;20309;-72
2022/06/23 10:35:40;;;;;;;;;;;;;;;35.94;23.91;101179.00;4905692;29;19966;-70
2022/06/23 10:38:27;;;;;;;;;;;;;;;36.10;24.62;101175.91;4905086;29;20448;-70
2022/06/23 10:41:12;;;;;;;;;;;;;;;36.72;23.78;101165.44;4904187;29;19926;-71
2022/06/23 10:43:49;;;;;;;;;;;;;;;36.58;24.05;101173.81;4904709;29;19923;-71
2022/06/23 10:46:20;;;;;;;;;;;;;;;36.68;24.23;101171.03;4908055;29;20042;-70
2022/06/23 10:49:02;;;;;;;;;;;;;;;36.86;23.59;101157.94;4893154;29;20323;-72
2022/06/23 10:51:45;;;;;;;;;;;;;;;36.84;23.83;101163.09;4909877;29;19915;-72
2022/06/23 10:54:10;;;;;;;;;;;;;;;37.00;24.00;101159.97;4909977;29;19919;-71
2022/06/23 10:56:54;;;;;;;;;;;;;;;37.11;23.64;101160.00;4902025;29;19925;-72
2022/06/23 10:59:26;;;;;;;;;;;;;;;37.16;23.49;101157.59;4904442;29;19926;-72
2022/06/23 11:01:53;;;;;;;;;;;;;;;36.95;23.18;101152.75;4903150;29;19919;-72
2022/06/23 11:04:32;;;;;;;;;;;;;;;37.41;22.42;101154.84;4902848;29;19927;-71
2022/06/23 11:07:06;;;;;;;;;;;;;;;36.46;22.97;101152.56;4906681;29;20535;-71
2022/06/23 11:09:45;;;;;;;;;;;;;;;37.48;22.99;101143.66;4916602;29;19923;-73
2022/06/23 11:12:13;;;;;;;;;;;;;;;38.11;21.64;101149.25;4983069;28;19913;-73
2022/06/23 11:14:44;;;;;;;;;;;;;;;38.14;21.97;101151.22;4984788;28;19921;-71
2022/06/23 11:17:18;;;;;;;;;;;;;;;37.80;22.40;101139.66;4983131;28;19997;-72
2022/06/23 11:20:04;;;;;;;;;;;;;;;37.85;22.34;101152.47;5005100;28;20274;-72
2022/06/23 11:22:50;;;;;;;;;;;;;;;38.22;22.01;101143.59;4976892;28;19961;-72
2022/06/23 11:25:28;;;;;;;;;;;;;;;38.25;21.94;101137.19;4977329;28;19918;-74
2022/06/23 11:27:58;;;;;;;;;;;;;;;38.10;21.99;101136.38;4990981;28;20093;-73
2022/06/23 11:30:28;;;;;;;;;;;;;;;38.21;22.31;101134.38;4987512;28;19910;-74
2022/06/23 11:33:09;;;;;;;;;;;;;;;38.39;22.47;101126.69;4979375;28;19992;-72
2022/06/23 11:35:38;;;;;;;;;;;;;;;39.02;22.10;101124.81;4974375;28;19965;-73
2022/06/23 11:38:12;;;;;;;;;;;;;;;39.14;21.85;101122.31;4982475;28;19918;-73
2022/06/23 11:40:37;;;;;;;;;;;;;;;39.35;20.96;101124.97;4973750;28;19918;-73
2022/06/23 11:43:08;;;;;;;;;;;;;;;39.13;21.00;101117.13;4973767;28;19972;-72
2022/06/23 11:45:36;;;;;;;;;;;;;;;39.16;21.40;101127.53;4986081;28;19920;-72
2022/06/23 11:48:01;;;;;;;;;;;;;;;39.00;21.29;101116.00;4978835;28;20767;-73
2022/06/23 11:50:53;;;;;;;;;;;;;;;39.05;21.26;101115.53;4975566;28;20009;-73
2022/06/23 11:53:36;;;;;;;;;;;;;;;39.01;21.25;101109.13;4990452;28;19918;-72
2022/06/23 11:56:10;;;;;;;;;;;;;;;39.13;21.29;101108.69;4973490;28;19922;-74
2022/06/23 11:58:43;;;;;;;;;;;;;;;39.60;21.20;101113.56;4982642;28;19929;-73
2022/06/23 12:01:10;;;;;;;;;;;;;;;39.42;21.01;101107.25;4988329;28;19922;-73
2022/06/23 12:03:35;;;;;;;;;;;;;;;39.20;21.17;101100.19;4985469;28;19964;-73
2022/06/23 12:06:11;;;;;;;;;;;;;;;39.27;21.21;101100.91;4981131;28;20365;-74
2022/06/23 12:08:38;;;;;;;;;;;;;;;39.73;20.48;101105.38;4989536;28;19926;-73
2022/06/23 12:11:07;;;;;;;;;;;;;;;39.60;21.17;101101.50;4977509;28;19918;-72
2022/06/23 12:13:38;;;;;;;;;;;;;;;39.79;20.29;101101.69;4980328;28;19977;-74
2022/06/23 12:16:04;;;;;;;;;;;;;;;39.98;20.33;101091.88;4977823;28;19924;-73
2022/06/23 12:18:43;;;;;;;;;;;;;;;39.94;20.82;101086.25;4983364;28;20273;-72
2022/06/23 12:21:21;;;;;;;;;;;;;;;39.69;20.81;101082.91;4982008;28;20673;-71
2022/06/23 12:24:00;;;;;;;;;;;;;;;39.54;21.02;101078.63;4983485;28;19932;-72
2022/06/23 12:26:33;;;;;;;;;;;;;;;39.83;20.91;101082.75;4982590;28;20694;-74
2022/06/23 12:29:05;;;;;;;;;;;;;;;39.43;20.58;101067.44;4983073;28;19970;-72
2022/06/23 12:31:34;;;;;;;;;;;;;;;40.18;20.74;101075.94;5013092;28;19918;-73
2022/06/23 12:34:11;;;;;;;;;;;;;;;40.51;20.15;101075.16;4986531;28;19922;-73
2022/06/23 12:36:45;;;;;;;;;;;;;;;40.31;20.37;101062.91;4976859;28;19914;-75
2022/06/23 12:39:14;;;;;;;;;;;;;;;40.05;20.47;101072.06;4975334;28;19924;-71
2022/06/23 12:41:47;;;;;;;;;;;;;;;40.04;20.32;101076.13;4980971;28;19933;-72
2022/06/23 12:44:32;;;;;;;;;;;;;;;40.06;19.98;101071.66;4979500;28;19941;-71
2022/06/23 12:47:18;;;;;;;;;;;;;;;40.08;19.89;101066.41;4979479;28;19922;-70
2022/06/23 12:49:49;;;;;;;;;;;;;;;40.46;19.28;101071.97;4966589;28;20998;-74
2022/06/23 12:52:33;;;;;;;;;;;;;;;40.76;19.38;101052.22;4965731;28;19980;-73
2022/06/23 12:55:02;;;;;;;;;;;;;;;40.68;19.88;101059.19;4966574;28;19918;-72
2022/06/23 12:57:33;;;;;;;;;;;;;;;40.86;19.41;101052.09;4961994;28;19953;-72
2022/06/23 13:00:12;;;;;;;;;;;;;;;40.73;19.68;101048.22;4961595;28;19940;-71
2022/06/23 13:02:41;;;;;;;;;;;;;;;41.29;19.21;101052.22;4961115;28;19918;-71
2022/06/23 13:05:22;;;;;;;;;;;;;;;41.29;18.81;101045.78;4963742;28;19957;-72
2022/06/23 13:07:48;;;;;;;;;;;;;;;41.21;19.18;101050.75;4968296;28;19926;-71
2022/06/23 13:10:21;;;;;;;;;;;;;;;41.52;18.99;101034.47;4968082;28;20657;-71
2022/06/23 13:12:59;;;;;;;;;;;;;;;41.15;19.41;101033.50;4952335;28;19914;-72